KBGF

Winchester Municipal Airport

Winchester, Tennessee, USA
METAR KBGF 170655Z AUTO 00000KT 10SM CLR 01/01 A3019 RMK A01
Observed Flight Rules
Dec-17 @ 06:55 UTC (34 minutes ago) Visual Flight Rules
Visibility Clouds
10 miles
  • Clear skies
Temperatures Readings
Current 1°C / 34°F
Dewpoint 1°C / 34°F
Humidity 100%
Altimeter 30.19" Hg
Pressure 1022 hPa
Elevation 299
METAR KBGF 170655Z AUTO 00000KT 10SM CLR 01/01 A3019 RMK A01
Observed Flight Rules
Dec-17 @ 06:55 UTC
(34 minutes ago)
VFR
Clouds
  • Clear skies
Temperature Dewpoint
1°C / 34°F 1°C / 34°F
Humidity Altimeter Pressure
100% 30.19" Hg 1022 hPa